sensor_id;sensor_type;location;lat;lon;timestamp;pressure;altitude;pressure_sealevel;temperature;humidity
76547;BME280;65390;53.014;8.886;2023-02-15T00:00:54;102946.44;;;3.90;100.00
76547;BME280;65390;53.014;8.886;2023-02-15T00:03:22;102916.44;;;3.76;100.00
76547;BME280;65390;53.014;8.886;2023-02-15T00:05:47;102941.13;;;3.90;100.00
76547;BME280;65390;53.014;8.886;2023-02-15T00:08:13;102899.66;;;3.77;100.00
76547;BME280;65390;53.014;8.886;2023-02-15T00:10:38;102897.00;;;3.76;100.00
76547;BME280;65390;53.014;8.886;2023-02-15T00:13:03;102910.25;;;3.80;100.00
76547;BME280;65390;53.014;8.886;2023-02-15T00:15:29;102913.84;;;3.67;100.00
76547;BME280;65390;53.014;8.886;2023-02-15T00:17:54;102905.09;;;3.44;100.00
76547;BME280;65390;53.014;8.886;2023-02-15T00:20:21;102888.34;;;3.25;100.00
76547;BME280;65390;53.014;8.886;2023-02-15T00:22:47;102916.59;;;3.41;100.00
76547;BME280;65390;53.014;8.886;2023-02-15T00:25:12;102905.09;;;3.36;100.00
76547;BME280;65390;53.014;8.886;2023-02-15T00:27:37;102921.88;;;3.41;100.00
76547;BME280;65390;53.014;8.886;2023-02-15T00:30:03;102899.78;;;3.33;100.00
76547;BME280;65390;53.014;8.886;2023-02-15T00:32:28;102903.31;;;3.43;100.00
76547;BME280;65390;53.014;8.886;2023-02-15T00:34:54;102908.63;;;3.44;100.00
76547;BME280;65390;53.014;8.886;2023-02-15T00:37:19;102932.41;;;3.56;100.00
76547;BME280;65390;53.014;8.886;2023-02-15T00:39:45;102918.31;;;3.50;100.00
76547;BME280;65390;53.014;8.886;2023-02-15T00:42:10;102934.16;;;3.67;100.00
76547;BME280;65390;53.014;8.886;2023-02-15T00:44:35;102917.44;;;3.48;100.00
76547;BME280;65390;53.014;8.886;2023-02-15T00:47:01;102936.88;;;3.36;100.00
76547;BME280;65390;53.014;8.886;2023-02-15T00:49:26;102902.50;;;3.13;100.00
76547;BME280;65390;53.014;8.886;2023-02-15T00:51:51;102902.50;;;2.84;100.00
76547;BME280;65390;53.014;8.886;2023-02-15T00:54:17;102919.28;;;2.98;100.00
76547;BME280;65390;53.014;8.886;2023-02-15T00:56:42;102915.75;;;2.98;100.00
76547;BME280;65390;53.014;8.886;2023-02-15T00:59:08;102907.81;;;2.90;100.00
76547;BME280;65390;53.014;8.886;2023-02-15T01:01:34;102868.97;;;2.65;100.00
76547;BME280;65390;53.014;8.886;2023-02-15T01:03:59;102886.63;;;2.63;100.00
76547;BME280;65390;53.014;8.886;2023-02-15T01:06:25;102890.13;;;2.50;100.00
76547;BME280;65390;53.014;8.886;2023-02-15T01:08:50;102864.53;;;2.24;100.00
76547;BME280;65390;53.014;8.886;2023-02-15T01:11:18;102921.00;;;2.38;100.00
76547;BME280;65390;53.014;8.886;2023-02-15T01:13:55;102886.53;;;2.05;100.00
76547;BME280;65390;53.014;8.886;2023-02-15T01:16:22;102905.06;;;2.05;100.00
76547;BME280;65390;53.014;8.886;2023-02-15T01:18:48;102887.38;;;1.83;100.00
76547;BME280;65390;53.014;8.886;2023-02-15T01:21:16;102907.66;;;1.87;100.00
76547;BME280;65390;53.014;8.886;2023-02-15T01:23:42;102912.88;;;1.79;100.00
76547;BME280;65390;53.014;8.886;2023-02-15T01:26:08;102907.56;;;1.70;100.00
76547;BME280;65390;53.014;8.886;2023-02-15T01:28:34;102912.88;;;1.74;100.00
76547;BME280;65390;53.014;8.886;2023-02-15T01:31:11;102882.00;;;1.64;100.00
76547;BME280;65390;53.014;8.886;2023-02-15T01:33:37;102898.69;;;1.60;100.00
76547;BME280;65390;53.014;8.886;2023-02-15T01:36:03;102857.19;;;1.27;100.00
76547;BME280;65390;53.014;8.886;2023-02-15T01:38:28;102885.41;;;1.39;100.00
76547;BME280;65390;53.014;8.886;2023-02-15T01:40:54;102866.88;;;1.33;100.00
76547;BME280;65390;53.014;8.886;2023-02-15T01:43:46;102858.94;;;1.31;100.00
76547;BME280;65390;53.014;8.886;2023-02-15T01:46:13;102856.31;;;1.34;100.00
76547;BME280;65390;53.014;8.886;2023-02-15T01:48:44;102871.31;;;1.41;100.00
76547;BME280;65390;53.014;8.886;2023-02-15T01:51:11;102897.81;;;1.55;100.00
76547;BME280;65390;53.014;8.886;2023-02-15T01:53:42;102870.44;;;1.42;100.00
76547;BME280;65390;53.014;8.886;2023-02-15T01:58:35;102849.22;;;1.26;100.00
76547;BME280;65390;53.014;8.886;2023-02-15T02:01:03;102839.50;;;1.18;100.00
76547;BME280;65390;53.014;8.886;2023-02-15T02:06:27;102849.19;;;1.19;100.00
76547;BME280;65390;53.014;8.886;2023-02-15T02:08:53;102880.06;;;1.30;100.00
76547;BME280;65390;53.014;8.886;2023-02-15T02:11:20;102842.16;;;1.18;100.00
76547;BME280;65390;53.014;8.886;2023-02-15T02:13:45;102858.88;;;1.19;100.00
76547;BME280;65390;53.014;8.886;2023-02-15T02:22:27;102866.03;;;1.43;100.00
76547;BME280;65390;53.014;8.886;2023-02-15T02:25:22;102864.31;;;1.48;100.00
76547;BME280;65390;53.014;8.886;2023-02-15T02:28:05;102865.13;;;1.39;100.00
76547;BME280;65390;53.014;8.886;2023-02-15T02:30:42;102869.59;;;1.45;100.00
76547;BME280;65390;53.014;8.886;2023-02-15T02:36:09;102831.69;;;1.41;100.00
76547;BME280;65390;53.014;8.886;2023-02-15T02:41:37;102822.00;;;1.39;100.00
76547;BME280;65390;53.014;8.886;2023-02-15T02:44:44;102816.72;;;1.43;100.00
76547;BME280;65390;53.014;8.886;2023-02-15T02:47:18;102813.19;;;1.38;100.00
76547;BME280;65390;53.014;8.886;2023-02-15T02:49:47;102825.47;;;1.29;100.00
76547;BME280;65390;53.014;8.886;2023-02-15T02:55:08;102812.13;;;0.98;100.00
76547;BME280;65390;53.014;8.886;2023-02-15T02:57:37;102810.25;;;0.80;100.00
76547;BME280;65390;53.014;8.886;2023-02-15T03:00:06;102796.13;;;0.72;100.00
76547;BME280;65390;53.014;8.886;2023-02-15T03:02:37;102811.88;;;0.65;100.00
76547;BME280;65390;53.014;8.886;2023-02-15T03:05:08;102841.03;;;0.83;100.00
76547;BME280;65390;53.014;8.886;2023-02-15T03:07:35;102835.84;;;0.94;100.00
76547;BME280;65390;53.014;8.886;2023-02-15T03:10:04;102814.69;;;0.89;100.00
76547;BME280;65390;53.014;8.886;2023-02-15T03:12:36;102805.06;;;0.93;100.00
76547;BME280;65390;53.014;8.886;2023-02-15T03:15:08;102835.13;;;1.25;100.00
76547;BME280;65390;53.014;8.886;2023-02-15T03:17:37;102808.66;;;1.10;100.00
76547;BME280;65390;53.014;8.886;2023-02-15T03:20:17;102798.09;;;1.10;100.00
76547;BME280;65390;53.014;8.886;2023-02-15T03:25:41;102820.16;;;1.24;100.00
76547;BME280;65390;53.014;8.886;2023-02-15T03:28:12;102821.91;;;1.19;100.00
76547;BME280;65390;53.014;8.886;2023-02-15T03:30:40;102822.78;;;1.24;100.00
76547;BME280;65390;53.014;8.886;2023-02-15T03:33:08;102789.25;;;1.03;100.00
76547;BME280;65390;53.014;8.886;2023-02-15T03:38:29;102817.56;;;1.27;100.00
76547;BME280;65390;53.014;8.886;2023-02-15T03:40:59;102813.09;;;1.18;100.00
76547;BME280;65390;53.014;8.886;2023-02-15T03:43:58;102817.47;;;1.12;100.00
76547;BME280;65390;53.014;8.886;2023-02-15T03:46:32;102811.22;;;0.99;100.00
76547;BME280;65390;53.014;8.886;2023-02-15T03:49:14;102775.84;;;0.65;100.00
76547;BME280;65390;53.014;8.886;2023-02-15T03:51:43;102796.94;;;0.65;100.00
76547;BME280;65390;53.014;8.886;2023-02-15T03:57:04;102810.91;;;0.52;100.00
76547;BME280;65390;53.014;8.886;2023-02-15T03:59:48;102781.72;;;0.29;100.00
76547;BME280;65390;53.014;8.886;2023-02-15T04:02:49;102789.75;;;0.46;100.00
76547;BME280;65390;53.014;8.886;2023-02-15T04:05:15;102803.94;;;0.58;100.00
76547;BME280;65390;53.014;8.886;2023-02-15T04:07:41;102793.31;;;0.52;100.00
76547;BME280;65390;53.014;8.886;2023-02-15T04:10:06;102797.78;;;0.61;100.00
76547;BME280;65390;53.014;8.886;2023-02-15T04:12:50;102781.84;;;0.43;100.00
76547;BME280;65390;53.014;8.886;2023-02-15T04:15:15;102791.56;;;0.50;100.00
76547;BME280;65390;53.014;8.886;2023-02-15T04:18:02;102780.19;;;0.60;100.00
76547;BME280;65390;53.014;8.886;2023-02-15T04:20:28;102777.56;;;0.57;100.00
76547;BME280;65390;53.014;8.886;2023-02-15T04:23:11;102780.13;;;0.49;100.00
76547;BME280;65390;53.014;8.886;2023-02-15T04:25:55;102766.00;;;0.40;100.00
76547;BME280;65390;53.014;8.886;2023-02-15T04:28:21;102755.22;;;0.15;100.00
76547;BME280;65390;53.014;8.886;2023-02-15T04:30:46;102779.03;;;0.21;100.00
76547;BME280;65390;53.014;8.886;2023-02-15T04:33:11;102805.53;;;0.38;100.00
76547;BME280;65390;53.014;8.886;2023-02-15T04:35:37;102770.31;;;0.32;100.00
76547;BME280;65390;53.014;8.886;2023-02-15T04:38:02;102764.00;;;0.13;100.00
76547;BME280;65390;53.014;8.886;2023-02-15T04:40:27;102763.13;;;0.14;100.00
76547;BME280;65390;53.014;8.886;2023-02-15T04:42:53;102776.38;;;0.20;100.00
76547;BME280;65390;53.014;8.886;2023-02-15T04:45:18;102764.13;;;0.25;100.00
76547;BME280;65390;53.014;8.886;2023-02-15T04:47:44;102751.78;;;0.19;100.00
76547;BME280;65390;53.014;8.886;2023-02-15T04:50:10;102752.72;;;0.32;100.00
76547;BME280;65390;53.014;8.886;2023-02-15T04:52:35;102757.88;;;0.15;100.00
76547;BME280;65390;53.014;8.886;2023-02-15T04:55:01;102757.94;;;0.21;100.00
76547;BME280;65390;53.014;8.886;2023-02-15T04:57:26;102769.25;;;0.11;100.00
76547;BME280;65390;53.014;8.886;2023-02-15T04:59:52;102772.00;;;0.23;100.00
76547;BME280;65390;53.014;8.886;2023-02-15T05:02:17;102748.28;;;0.20;100.00
76547;BME280;65390;53.014;8.886;2023-02-15T05:04:43;102749.06;;;0.13;100.00
76547;BME280;65390;53.014;8.886;2023-02-15T05:07:10;102755.31;;;0.21;100.00
76547;BME280;65390;53.014;8.886;2023-02-15T05:09:36;102761.44;;;0.20;100.00
76547;BME280;65390;53.014;8.886;2023-02-15T05:12:01;102738.50;;;0.09;100.00
76547;BME280;65390;53.014;8.886;2023-02-15T05:14:27;102769.41;;;0.29;100.00
76547;BME280;65390;53.014;8.886;2023-02-15T05:16:52;102733.94;;;-0.11;100.00
76547;BME280;65390;53.014;8.886;2023-02-15T05:19:19;102725.09;;;-0.17;100.00
76547;BME280;65390;53.014;8.886;2023-02-15T05:21:44;102723.41;;;-0.11;100.00
76547;BME280;65390;53.014;8.886;2023-02-15T05:24:10;102728.72;;;-0.02;100.00
76547;BME280;65390;53.014;8.886;2023-02-15T05:27:11;102752.59;;;0.17;100.00
76547;BME280;65390;53.014;8.886;2023-02-15T05:29:55;102713.75;;;-0.07;100.00
76547;BME280;65390;53.014;8.886;2023-02-15T05:32:20;102725.28;;;0.06;100.00
76547;BME280;65390;53.014;8.886;2023-02-15T05:34:46;102717.38;;;0.06;100.00
76547;BME280;65390;53.014;8.886;2023-02-15T05:37:11;102726.19;;;0.09;100.00
76547;BME280;65390;53.014;8.886;2023-02-15T05:39:36;102733.13;;;-0.02;100.00
76547;BME280;65390;53.014;8.886;2023-02-15T05:42:02;102734.81;;;-0.12;100.00
76547;BME280;65390;53.014;8.886;2023-02-15T05:44:27;102732.38;;;0.11;100.00
76547;BME280;65390;53.014;8.886;2023-02-15T05:46:53;102736.84;;;0.20;100.00
76547;BME280;65390;53.014;8.886;2023-02-15T05:49:18;102729.84;;;0.23;100.00
76547;BME280;65390;53.014;8.886;2023-02-15T05:51:44;102738.75;;;0.42;100.00
76547;BME280;65390;53.014;8.886;2023-02-15T05:54:09;102710.47;;;0.20;100.00
76547;BME280;65390;53.014;8.886;2023-02-15T05:56:34;102712.13;;;0.07;100.00
76547;BME280;65390;53.014;8.886;2023-02-15T05:59:00;102728.81;;;0.06;100.00
76547;BME280;65390;53.014;8.886;2023-02-15T06:01:25;102695.41;;;0.05;100.00
76547;BME280;65390;53.014;8.886;2023-02-15T06:03:51;102696.28;;;0.03;100.00
76547;BME280;65390;53.014;8.886;2023-02-15T06:06:17;102702.31;;;-0.11;100.00
76547;BME280;65390;53.014;8.886;2023-02-15T06:08:43;102696.88;;;-0.29;100.00
76547;BME280;65390;53.014;8.886;2023-02-15T06:11:08;102710.13;;;-0.20;100.00
76547;BME280;65390;53.014;8.886;2023-02-15T06:13:35;102714.56;;;-0.17;100.00
76547;BME280;65390;53.014;8.886;2023-02-15T06:16:00;102736.63;;;-0.05;100.00
76547;BME280;65390;53.014;8.886;2023-02-15T06:18:26;102723.38;;;-0.12;100.00
76547;BME280;65390;53.014;8.886;2023-02-15T06:20:52;102711.94;;;-0.16;100.00
76547;BME280;65390;53.014;8.886;2023-02-15T06:23:17;102703.94;;;-0.26;100.00
76547;BME280;65390;53.014;8.886;2023-02-15T06:25:44;102695.19;;;-0.22;100.00
76547;BME280;65390;53.014;8.886;2023-02-15T06:28:09;102700.53;;;-0.16;100.00
76547;BME280;65390;53.014;8.886;2023-02-15T06:30:35;102714.66;;;-0.05;100.00
76547;BME280;65390;53.014;8.886;2023-02-15T06:33:00;102708.56;;;0.01;100.00
76547;BME280;65390;53.014;8.886;2023-02-15T06:35:26;102703.22;;;-0.06;100.00
76547;BME280;65390;53.014;8.886;2023-02-15T06:37:54;102734.06;;;0.02;100.00
76547;BME280;65390;53.014;8.886;2023-02-15T06:40:20;102710.09;;;-0.24;100.00
76547;BME280;65390;53.014;8.886;2023-02-15T06:42:45;102702.13;;;-0.32;100.00
76547;BME280;65390;53.014;8.886;2023-02-15T06:45:11;102700.31;;;-0.36;100.00
76547;BME280;65390;53.014;8.886;2023-02-15T06:47:37;102696.59;;;-0.56;100.00
76547;BME280;65390;53.014;8.886;2023-02-15T06:50:05;102728.34;;;-0.44;100.00
76547;BME280;65390;53.014;8.886;2023-02-15T06:52:42;102725.63;;;-0.53;100.00
76547;BME280;65390;53.014;8.886;2023-02-15T06:55:13;102714.13;;;-0.62;100.00
76547;BME280;65390;53.014;8.886;2023-02-15T06:57:38;102701.84;;;-0.59;100.00
76547;BME280;65390;53.014;8.886;2023-02-15T07:00:04;102713.38;;;-0.50;100.00
76547;BME280;65390;53.014;8.886;2023-02-15T07:02:30;102702.94;;;-0.38;100.00
76547;BME280;65390;53.014;8.886;2023-02-15T07:04:56;102709.97;;;-0.38;100.00
76547;BME280;65390;53.014;8.886;2023-02-15T07:07:22;102708.19;;;-0.41;100.00
76547;BME280;65390;53.014;8.886;2023-02-15T07:09:50;102709.19;;;-0.26;100.00
76547;BME280;65390;53.014;8.886;2023-02-15T07:12:16;102709.31;;;-0.16;100.00
76547;BME280;65390;53.014;8.886;2023-02-15T07:15:02;102709.34;;;-0.10;100.00
76547;BME280;65390;53.014;8.886;2023-02-15T07:17:36;102734.97;;;0.07;100.00
76547;BME280;65390;53.014;8.886;2023-02-15T07:20:28;102699.72;;;-0.03;100.00
76547;BME280;65390;53.014;8.886;2023-02-15T07:22:54;102687.53;;;0.10;100.00
76547;BME280;65390;53.014;8.886;2023-02-15T07:25:20;102700.84;;;0.28;100.00
76547;BME280;65390;53.014;8.886;2023-02-15T07:27:48;102697.34;;;0.30;100.00
76547;BME280;65390;53.014;8.886;2023-02-15T07:30:16;102692.00;;;0.18;100.00
76547;BME280;65390;53.014;8.886;2023-02-15T07:32:42;102653.16;;;-0.03;100.00
76547;BME280;65390;53.014;8.886;2023-02-15T07:35:31;102675.38;;;0.32;100.00
76547;BME280;65390;53.014;8.886;2023-02-15T07:37:56;102678.09;;;0.39;100.00
76547;BME280;65390;53.014;8.886;2023-02-15T07:40:23;102712.53;;;0.70;100.00
76547;BME280;65390;53.014;8.886;2023-02-15T07:42:48;102708.22;;;0.84;100.00
76547;BME280;65390;53.014;8.886;2023-02-15T07:45:14;102654.44;;;0.57;100.00
76547;BME280;65390;53.014;8.886;2023-02-15T07:47:39;102685.22;;;0.60;100.00
76547;BME280;65390;53.014;8.886;2023-02-15T07:50:05;102661.47;;;0.54;100.00
76547;BME280;65390;53.014;8.886;2023-02-15T07:52:31;102681.88;;;0.93;100.00
76547;BME280;65390;53.014;8.886;2023-02-15T07:54:56;102686.22;;;0.88;100.00
76547;BME280;65390;53.014;8.886;2023-02-15T07:57:24;102699.50;;;1.06;100.00
76547;BME280;65390;53.014;8.886;2023-02-15T07:59:55;102651.03;;;0.87;100.00
76547;BME280;65390;53.014;8.886;2023-02-15T08:02:21;102674.91;;;1.19;100.00
76547;BME280;65390;53.014;8.886;2023-02-15T08:04:46;102667.91;;;1.34;100.00
76547;BME280;65390;53.014;8.886;2023-02-15T08:07:14;102682.88;;;1.35;100.00
76547;BME280;65390;53.014;8.886;2023-02-15T08:09:39;102652.00;;;1.21;100.00
76547;BME280;65390;53.014;8.886;2023-02-15T08:12:05;102640.56;;;1.13;100.00
76547;BME280;65390;53.014;8.886;2023-02-15T08:14:31;102645.84;;;1.26;100.00
76547;BME280;65390;53.014;8.886;2023-02-15T08:16:59;102643.22;;;1.23;100.00
76547;BME280;65390;53.014;8.886;2023-02-15T08:19:30;102647.66;;;1.37;100.00
76547;BME280;65390;53.014;8.886;2023-02-15T08:21:59;102652.06;;;1.41;100.00
76547;BME280;65390;53.014;8.886;2023-02-15T08:24:27;102652.06;;;1.96;100.00
76547;BME280;65390;53.014;8.886;2023-02-15T08:26:53;102639.63;;;2.56;100.00
76547;BME280;65390;53.014;8.886;2023-02-15T08:29:21;102639.88;;;3.67;100.00
76547;BME280;65390;53.014;8.886;2023-02-15T08:31:47;102629.50;;;4.34;99.24
76547;BME280;65390;53.014;8.886;2023-02-15T08:34:17;102656.16;;;4.97;96.41
76547;BME280;65390;53.014;8.886;2023-02-15T08:36:52;102647.25;;;5.04;93.68
76547;BME280;65390;53.014;8.886;2023-02-15T08:39:36;102620.03;;;5.47;92.50
76547;BME280;65390;53.014;8.886;2023-02-15T08:42:04;102596.72;;;6.15;90.86
76547;BME280;65390;53.014;8.886;2023-02-15T08:44:29;102608.47;;;6.91;88.92
76547;BME280;65390;53.014;8.886;2023-02-15T08:46:55;102615.66;;;6.43;85.80
76547;BME280;65390;53.014;8.886;2023-02-15T08:49:24;102641.00;;;6.19;86.67
76547;BME280;65390;53.014;8.886;2023-02-15T08:51:50;102618.44;;;5.91;87.95
76547;BME280;65390;53.014;8.886;2023-02-15T08:54:19;102626.44;;;5.88;87.69
76547;BME280;65390;53.014;8.886;2023-02-15T08:56:45;102640.09;;;6.20;87.72
76547;BME280;65390;53.014;8.886;2023-02-15T08:59:18;102616.38;;;6.94;87.61
76547;BME280;65390;53.014;8.886;2023-02-15T09:01:51;102613.56;;;7.76;85.39
76547;BME280;65390;53.014;8.886;2023-02-15T09:04:18;102617.06;;;8.46;83.66
76547;BME280;65390;53.014;8.886;2023-02-15T09:06:48;102608.94;;;8.81;81.25
76547;BME280;65390;53.014;8.886;2023-02-15T09:09:16;102601.38;;;8.34;80.17
76547;BME280;65390;53.014;8.886;2023-02-15T09:11:44;102633.31;;;8.70;80.11
76547;BME280;65390;53.014;8.886;2023-02-15T09:14:14;102610.03;;;8.73;80.13
76547;BME280;65390;53.014;8.886;2023-02-15T09:16:42;102615.78;;;8.60;78.75
76547;BME280;65390;53.014;8.886;2023-02-15T09:19:12;102623.63;;;8.33;79.18
76547;BME280;65390;53.014;8.886;2023-02-15T09:21:39;102603.00;;;8.06;79.53
76547;BME280;65390;53.014;8.886;2023-02-15T09:24:09;102603.97;;;7.68;80.11
76547;BME280;65390;53.014;8.886;2023-02-15T09:26:38;102598.03;;;7.58;80.97
76547;BME280;65390;53.014;8.886;2023-02-15T09:29:07;102622.56;;;7.35;81.43
76547;BME280;65390;53.014;8.886;2023-02-15T09:31:45;102613.72;;;7.33;82.38
76547;BME280;65390;53.014;8.886;2023-02-15T09:34:13;102574.06;;;7.18;83.11
76547;BME280;65390;53.014;8.886;2023-02-15T09:36:40;102606.81;;;6.86;83.27
76547;BME280;65390;53.014;8.886;2023-02-15T09:44:33;102627.56;;;6.70;86.80
76547;BME280;65390;53.014;8.886;2023-02-15T09:50:32;102631.84;;;6.34;88.21
76547;BME280;65390;53.014;8.886;2023-02-15T10:03:41;102628.66;;;6.15;91.23
76547;BME280;65390;53.014;8.886;2023-02-15T10:11:22;102628.03;;;5.99;93.62
76547;BME280;65390;53.014;8.886;2023-02-15T10:22:38;102622.19;;;6.27;94.66
76547;BME280;65390;53.014;8.886;2023-02-15T10:27:46;102614.13;;;6.33;95.47
76547;BME280;65390;53.014;8.886;2023-02-15T10:30:16;102591.19;;;6.24;95.79
76547;BME280;65390;53.014;8.886;2023-02-15T10:35:44;102587.19;;;6.48;96.70
76547;BME280;65390;53.014;8.886;2023-02-15T10:41:07;102602.97;;;6.97;95.88
76547;BME280;65390;53.014;8.886;2023-02-15T10:52:25;102586.28;;;7.28;96.65
76547;BME280;65390;53.014;8.886;2023-02-15T10:57:58;102558.88;;;7.58;95.98
76547;BME280;65390;53.014;8.886;2023-02-15T11:06:09;102552.13;;;7.44;96.45
76547;BME280;65390;53.014;8.886;2023-02-15T11:08:41;102571.75;;;7.41;96.23
76547;BME280;65390;53.014;8.886;2023-02-15T11:11:13;102571.28;;;7.60;96.58
76547;BME280;65390;53.014;8.886;2023-02-15T11:13:46;102577.22;;;7.72;95.52
76547;BME280;65390;53.014;8.886;2023-02-15T11:16:51;102581.53;;;7.76;95.72
76547;BME280;65390;53.014;8.886;2023-02-15T11:19:36;102564.44;;;7.83;96.35
76547;BME280;65390;53.014;8.886;2023-02-15T11:22:06;102575.31;;;8.10;96.03
76547;BME280;65390;53.014;8.886;2023-02-15T11:24:39;102549.03;;;8.26;95.60
76547;BME280;65390;53.014;8.886;2023-02-15T11:29:40;102532.34;;;8.17;94.32
76547;BME280;65390;53.014;8.886;2023-02-15T11:32:28;102534.44;;;8.39;94.77
76547;BME280;65390;53.014;8.886;2023-02-15T11:37:47;102511.31;;;8.38;94.32
76547;BME280;65390;53.014;8.886;2023-02-15T11:40:26;102528.34;;;8.65;94.20
76547;BME280;65390;53.014;8.886;2023-02-15T11:42:58;102527.72;;;8.85;94.06
76547;BME280;65390;53.014;8.886;2023-02-15T11:45:31;102526.69;;;8.89;93.80
76547;BME280;65390;53.014;8.886;2023-02-15T11:47:58;102539.78;;;8.98;93.92
76547;BME280;65390;53.014;8.886;2023-02-15T11:50:26;102510.56;;;8.92;93.59
76547;BME280;65390;53.014;8.886;2023-02-15T11:52:56;102508.91;;;8.88;93.31
76547;BME280;65390;53.014;8.886;2023-02-15T11:55:23;102491.13;;;8.87;93.43
76547;BME280;65390;53.014;8.886;2023-02-15T12:01:07;102507.50;;;9.04;93.48
76547;BME280;65390;53.014;8.886;2023-02-15T12:03:46;102502.00;;;9.08;93.71
76547;BME280;65390;53.014;8.886;2023-02-15T12:06:23;102481.41;;;9.11;93.59
76547;BME280;65390;53.014;8.886;2023-02-15T12:08:55;102468.81;;;9.14;93.50
76547;BME280;65390;53.014;8.886;2023-02-15T12:11:30;102482.66;;;9.27;93.55
76547;BME280;65390;53.014;8.886;2023-02-15T12:14:02;102463.69;;;9.34;93.75
76547;BME280;65390;53.014;8.886;2023-02-15T12:16:43;102490.84;;;9.74;93.25
76547;BME280;65390;53.014;8.886;2023-02-15T12:19:31;102494.00;;;9.60;92.52
76547;BME280;65390;53.014;8.886;2023-02-15T12:21:59;102448.69;;;9.55;93.03
76547;BME280;65390;53.014;8.886;2023-02-15T12:24:29;102461.78;;;9.63;91.61
76547;BME280;65390;53.014;8.886;2023-02-15T12:27:03;102452.47;;;9.48;92.46
76547;BME280;65390;53.014;8.886;2023-02-15T12:29:34;102460.69;;;9.68;92.18
76547;BME280;65390;53.014;8.886;2023-02-15T12:32:01;102466.22;;;9.89;91.82
76547;BME280;65390;53.014;8.886;2023-02-15T12:34:30;102442.88;;;9.92;91.27
76547;BME280;65390;53.014;8.886;2023-02-15T12:37:01;102453.97;;;9.82;91.13
76547;BME280;65390;53.014;8.886;2023-02-15T12:39:29;102456.53;;;9.85;91.44
76547;BME280;65390;53.014;8.886;2023-02-15T12:44:23;102427.84;;;9.88;91.18
76547;BME280;65390;53.014;8.886;2023-02-15T12:49:34;102426.09;;;10.11;91.04
76547;BME280;65390;53.014;8.886;2023-02-15T12:52:02;102445.75;;;10.35;90.16
76547;BME280;65390;53.014;8.886;2023-02-15T12:54:31;102425.91;;;10.15;89.76
76547;BME280;65390;53.014;8.886;2023-02-15T12:56:58;102425.16;;;10.12;90.00
76547;BME280;65390;53.014;8.886;2023-02-15T12:59:24;102429.09;;;10.26;89.95
76547;BME280;65390;53.014;8.886;2023-02-15T13:01:51;102416.81;;;10.21;90.37
76547;BME280;65390;53.014;8.886;2023-02-15T13:04:25;102439.00;;;10.70;89.96
76547;BME280;65390;53.014;8.886;2023-02-15T13:06:53;102432.94;;;10.86;89.07
76547;BME280;65390;53.014;8.886;2023-02-15T13:12:30;102392.66;;;10.66;87.43
76547;BME280;65390;53.014;8.886;2023-02-15T13:15:00;102410.69;;;10.63;86.61
76547;BME280;65390;53.014;8.886;2023-02-15T13:17:31;102399.31;;;10.56;85.53
76547;BME280;65390;53.014;8.886;2023-02-15T13:20:18;102407.44;;;10.54;85.61
76547;BME280;65390;53.014;8.886;2023-02-15T13:22:48;102428.41;;;10.67;85.58
76547;BME280;65390;53.014;8.886;2023-02-15T13:25:24;102400.13;;;10.58;85.72
76547;BME280;65390;53.014;8.886;2023-02-15T13:28:01;102399.91;;;10.64;84.68
76547;BME280;65390;53.014;8.886;2023-02-15T13:30:36;102392.88;;;10.62;85.03
76547;BME280;65390;53.014;8.886;2023-02-15T13:33:13;102390.53;;;10.74;84.93
76547;BME280;65390;53.014;8.886;2023-02-15T13:35:59;102397.63;;;10.75;85.24
76547;BME280;65390;53.014;8.886;2023-02-15T13:41:11;102383.63;;;10.69;85.08
76547;BME280;65390;53.014;8.886;2023-02-15T13:47:12;102386.53;;;10.84;84.95
76547;BME280;65390;53.014;8.886;2023-02-15T13:52:48;102361.09;;;10.73;84.45
76547;BME280;65390;53.014;8.886;2023-02-15T13:58:11;102381.03;;;10.87;83.89
76547;BME280;65390;53.014;8.886;2023-02-15T14:06:14;102370.38;;;10.86;84.03
76547;BME280;65390;53.014;8.886;2023-02-15T14:17:03;102372.19;;;10.85;83.48
76547;BME280;65390;53.014;8.886;2023-02-15T14:19:52;102358.78;;;10.85;83.50
76547;BME280;65390;53.014;8.886;2023-02-15T14:22:33;102365.38;;;10.99;83.58
76547;BME280;65390;53.014;8.886;2023-02-15T14:28:14;102368.81;;;11.02;82.64
76547;BME280;65390;53.014;8.886;2023-02-15T14:31:02;102331.53;;;10.74;82.32
76547;BME280;65390;53.014;8.886;2023-02-15T14:33:55;102350.81;;;11.04;81.86
76547;BME280;65390;53.014;8.886;2023-02-15T14:36:32;102343.38;;;10.90;81.05
76547;BME280;65390;53.014;8.886;2023-02-15T14:42:33;102345.66;;;10.79;82.12
76547;BME280;65390;53.014;8.886;2023-02-15T14:45:16;102342.19;;;10.76;81.86
76547;BME280;65390;53.014;8.886;2023-02-15T14:48:07;102329.19;;;10.67;81.91
76547;BME280;65390;53.014;8.886;2023-02-15T14:50:43;102344.22;;;10.71;82.25
76547;BME280;65390;53.014;8.886;2023-02-15T14:53:34;102369.31;;;10.90;82.87
76547;BME280;65390;53.014;8.886;2023-02-15T14:56:17;102358.88;;;10.62;83.70
76547;BME280;65390;53.014;8.886;2023-02-15T15:01:27;102353.16;;;10.49;83.72
76547;BME280;65390;53.014;8.886;2023-02-15T15:03:58;102331.25;;;10.38;83.63
76547;BME280;65390;53.014;8.886;2023-02-15T15:06:36;102317.00;;;10.38;83.29
76547;BME280;65390;53.014;8.886;2023-02-15T15:09:19;102364.78;;;10.70;83.28
76547;BME280;65390;53.014;8.886;2023-02-15T15:11:50;102339.81;;;10.48;83.20
76547;BME280;65390;53.014;8.886;2023-02-15T15:17:03;102336.06;;;10.30;83.45
76547;BME280;65390;53.014;8.886;2023-02-15T15:25:00;102331.72;;;10.27;84.06
76547;BME280;65390;53.014;8.886;2023-02-15T15:46:45;102307.94;;;10.40;84.97
76547;BME280;65390;53.014;8.886;2023-02-15T15:49:27;102304.66;;;10.34;85.17
76547;BME280;65390;53.014;8.886;2023-02-15T15:51:54;102289.09;;;10.20;85.38
76547;BME280;65390;53.014;8.886;2023-02-15T15:54:43;102295.41;;;10.19;85.97